sensor_id;sensor_type;location;lat;lon;timestamp;temperature;humidity
569;DHT22;269;48.884;9.192;2022-07-18T00:01:58;20.70;56.10
569;DHT22;269;48.884;9.192;2022-07-18T00:04:26;20.70;56.20
569;DHT22;269;48.884;9.192;2022-07-18T00:06:53;20.60;56.20
569;DHT22;269;48.884;9.192;2022-07-18T00:09:20;20.60;56.50
569;DHT22;269;48.884;9.192;2022-07-18T00:11:49;20.60;55.40
569;DHT22;269;48.884;9.192;2022-07-18T00:14:18;20.60;55.20
569;DHT22;269;48.884;9.192;2022-07-18T00:16:45;20.60;55.80
569;DHT22;269;48.884;9.192;2022-07-18T00:19:12;20.60;56.50
569;DHT22;269;48.884;9.192;2022-07-18T00:21:40;20.60;56.70
569;DHT22;269;48.884;9.192;2022-07-18T00:24:07;20.60;57.10
569;DHT22;269;48.884;9.192;2022-07-18T00:26:34;20.50;57.40
569;DHT22;269;48.884;9.192;2022-07-18T00:29:01;20.40;57.60
569;DHT22;269;48.884;9.192;2022-07-18T00:31:29;20.40;57.40
569;DHT22;269;48.884;9.192;2022-07-18T00:33:56;20.30;57.40
569;DHT22;269;48.884;9.192;2022-07-18T00:36:24;20.30;57.50
569;DHT22;269;48.884;9.192;2022-07-18T00:38:51;20.30;56.40
569;DHT22;269;48.884;9.192;2022-07-18T00:41:18;20.20;55.10
569;DHT22;269;48.884;9.192;2022-07-18T00:43:46;20.20;56.30
569;DHT22;269;48.884;9.192;2022-07-18T00:46:13;20.20;56.20
569;DHT22;269;48.884;9.192;2022-07-18T00:48:42;20.20;57.10
569;DHT22;269;48.884;9.192;2022-07-18T00:51:09;20.10;56.30
569;DHT22;269;48.884;9.192;2022-07-18T00:53:36;20.10;56.70
569;DHT22;269;48.884;9.192;2022-07-18T00:56:04;20.10;57.10
569;DHT22;269;48.884;9.192;2022-07-18T00:58:32;20.10;58.00
569;DHT22;269;48.884;9.192;2022-07-18T01:00:59;20.00;58.00
569;DHT22;269;48.884;9.192;2022-07-18T01:03:45;19.90;57.80
569;DHT22;269;48.884;9.192;2022-07-18T01:06:12;19.80;58.40
569;DHT22;269;48.884;9.192;2022-07-18T01:08:42;19.70;58.50
569;DHT22;269;48.884;9.192;2022-07-18T01:11:09;19.60;58.90
569;DHT22;269;48.884;9.192;2022-07-18T01:13:37;19.60;59.60
569;DHT22;269;48.884;9.192;2022-07-18T01:16:05;19.50;59.90
569;DHT22;269;48.884;9.192;2022-07-18T01:18:32;19.50;60.30
569;DHT22;269;48.884;9.192;2022-07-18T01:21:00;19.40;60.50
569;DHT22;269;48.884;9.192;2022-07-18T01:23:27;19.40;61.30
569;DHT22;269;48.884;9.192;2022-07-18T01:25:55;19.30;61.70
569;DHT22;269;48.884;9.192;2022-07-18T01:28:22;19.30;62.20
569;DHT22;269;48.884;9.192;2022-07-18T01:30:48;19.20;62.30
569;DHT22;269;48.884;9.192;2022-07-18T01:33:16;19.20;61.40
569;DHT22;269;48.884;9.192;2022-07-18T01:35:43;19.20;61.00
569;DHT22;269;48.884;9.192;2022-07-18T01:38:11;19.20;61.10
569;DHT22;269;48.884;9.192;2022-07-18T01:40:38;19.20;60.60
569;DHT22;269;48.884;9.192;2022-07-18T01:43:05;19.20;61.60
569;DHT22;269;48.884;9.192;2022-07-18T01:45:33;19.20;61.50
569;DHT22;269;48.884;9.192;2022-07-18T01:48:00;19.20;61.90
569;DHT22;269;48.884;9.192;2022-07-18T01:50:27;19.20;63.60
569;DHT22;269;48.884;9.192;2022-07-18T01:52:54;19.20;63.70
569;DHT22;269;48.884;9.192;2022-07-18T01:55:23;19.10;62.90
569;DHT22;269;48.884;9.192;2022-07-18T01:57:50;19.10;62.90
569;DHT22;269;48.884;9.192;2022-07-18T02:00:17;19.00;62.80
569;DHT22;269;48.884;9.192;2022-07-18T02:02:44;19.00;63.10
569;DHT22;269;48.884;9.192;2022-07-18T02:05:11;18.90;63.10
569;DHT22;269;48.884;9.192;2022-07-18T02:07:40;18.80;64.10
569;DHT22;269;48.884;9.192;2022-07-18T02:10:10;18.80;63.70
569;DHT22;269;48.884;9.192;2022-07-18T02:12:39;18.70;64.40
569;DHT22;269;48.884;9.192;2022-07-18T02:15:08;18.70;64.90
569;DHT22;269;48.884;9.192;2022-07-18T02:17:35;18.60;65.50
569;DHT22;269;48.884;9.192;2022-07-18T02:20:04;18.60;66.10
569;DHT22;269;48.884;9.192;2022-07-18T02:22:31;18.60;66.70
569;DHT22;269;48.884;9.192;2022-07-18T02:24:58;18.50;66.90
569;DHT22;269;48.884;9.192;2022-07-18T02:27:25;18.40;66.80
569;DHT22;269;48.884;9.192;2022-07-18T02:29:53;18.40;66.70
569;DHT22;269;48.884;9.192;2022-07-18T02:32:21;18.30;67.20
569;DHT22;269;48.884;9.192;2022-07-18T02:34:48;18.30;67.70
569;DHT22;269;48.884;9.192;2022-07-18T02:37:16;18.30;68.10
569;DHT22;269;48.884;9.192;2022-07-18T02:39:43;18.20;68.40
569;DHT22;269;48.884;9.192;2022-07-18T02:42:10;18.10;68.60
569;DHT22;269;48.884;9.192;2022-07-18T02:44:37;18.10;69.10
569;DHT22;269;48.884;9.192;2022-07-18T02:47:06;18.00;69.20
569;DHT22;269;48.884;9.192;2022-07-18T02:49:33;18.00;69.80
569;DHT22;269;48.884;9.192;2022-07-18T02:52:03;17.80;70.70
569;DHT22;269;48.884;9.192;2022-07-18T02:54:34;17.70;71.80
569;DHT22;269;48.884;9.192;2022-07-18T02:57:02;17.50;72.90
569;DHT22;269;48.884;9.192;2022-07-18T02:59:29;17.40;73.90
569;DHT22;269;48.884;9.192;2022-07-18T03:01:56;17.20;74.90
569;DHT22;269;48.884;9.192;2022-07-18T03:04:25;17.10;76.10
569;DHT22;269;48.884;9.192;2022-07-18T03:06:52;17.00;77.30
569;DHT22;269;48.884;9.192;2022-07-18T03:09:19;17.00;79.00
569;DHT22;269;48.884;9.192;2022-07-18T03:11:46;16.90;80.20
569;DHT22;269;48.884;9.192;2022-07-18T03:14:14;16.80;81.60
569;DHT22;269;48.884;9.192;2022-07-18T03:16:41;16.70;82.80
569;DHT22;269;48.884;9.192;2022-07-18T03:19:08;16.70;83.90
569;DHT22;269;48.884;9.192;2022-07-18T03:21:36;16.60;84.70
569;DHT22;269;48.884;9.192;2022-07-18T03:24:04;16.60;85.50
569;DHT22;269;48.884;9.192;2022-07-18T03:26:31;16.50;86.80
569;DHT22;269;48.884;9.192;2022-07-18T03:28:58;16.50;89.20
569;DHT22;269;48.884;9.192;2022-07-18T03:31:25;16.40;90.60
569;DHT22;269;48.884;9.192;2022-07-18T03:33:52;16.40;91.40
569;DHT22;269;48.884;9.192;2022-07-18T03:36:19;16.30;92.00
569;DHT22;269;48.884;9.192;2022-07-18T03:38:48;16.30;92.70
569;DHT22;269;48.884;9.192;2022-07-18T03:41:15;16.30;93.30
569;DHT22;269;48.884;9.192;2022-07-18T03:43:41;16.20;93.70
569;DHT22;269;48.884;9.192;2022-07-18T03:46:09;16.10;94.30
569;DHT22;269;48.884;9.192;2022-07-18T03:48:36;16.00;94.90
569;DHT22;269;48.884;9.192;2022-07-18T03:51:03;15.90;95.60
569;DHT22;269;48.884;9.192;2022-07-18T03:53:31;15.80;96.40
569;DHT22;269;48.884;9.192;2022-07-18T03:56:00;15.70;96.80
569;DHT22;269;48.884;9.192;2022-07-18T03:58:27;15.70;97.30
569;DHT22;269;48.884;9.192;2022-07-18T04:00:54;15.70;97.90
569;DHT22;269;48.884;9.192;2022-07-18T04:03:21;15.60;98.70
569;DHT22;269;48.884;9.192;2022-07-18T04:05:48;15.70;99.10
569;DHT22;269;48.884;9.192;2022-07-18T04:08:16;15.70;99.30
569;DHT22;269;48.884;9.192;2022-07-18T04:10:43;15.70;99.50
569;DHT22;269;48.884;9.192;2022-07-18T04:13:11;15.70;99.60
569;DHT22;269;48.884;9.192;2022-07-18T04:15:39;15.60;99.50
569;DHT22;269;48.884;9.192;2022-07-18T04:18:07;15.60;99.50
569;DHT22;269;48.884;9.192;2022-07-18T04:20:35;15.60;99.60
569;DHT22;269;48.884;9.192;2022-07-18T04:23:07;15.60;99.80
569;DHT22;269;48.884;9.192;2022-07-18T04:25:35;15.60;99.90
569;DHT22;269;48.884;9.192;2022-07-18T04:28:04;15.60;99.90
569;DHT22;269;48.884;9.192;2022-07-18T04:30:33;15.60;99.90
569;DHT22;269;48.884;9.192;2022-07-18T04:33:01;15.60;99.90
569;DHT22;269;48.884;9.192;2022-07-18T04:35:29;15.60;99.90
569;DHT22;269;48.884;9.192;2022-07-18T04:37:56;15.60;99.90
569;DHT22;269;48.884;9.192;2022-07-18T04:40:23;15.60;99.90
569;DHT22;269;48.884;9.192;2022-07-18T04:42:50;15.70;99.90
569;DHT22;269;48.884;9.192;2022-07-18T04:45:17;15.70;99.90
569;DHT22;269;48.884;9.192;2022-07-18T12:46:19;37.40;32.20
569;DHT22;269;48.884;9.192;2022-07-18T12:48:46;36.70;33.00
569;DHT22;269;48.884;9.192;2022-07-18T12:51:13;36.90;31.90
569;DHT22;269;48.884;9.192;2022-07-18T16:30:04;35.90;35.10
569;DHT22;269;48.884;9.192;2022-07-18T16:32:32;35.30;35.20
569;DHT22;269;48.884;9.192;2022-07-18T16:34:59;35.00;36.70
569;DHT22;269;48.884;9.192;2022-07-18T16:37:26;34.70;36.90
569;DHT22;269;48.884;9.192;2022-07-18T16:39:53;34.50;35.80
569;DHT22;269;48.884;9.192;2022-07-18T16:42:21;34.20;37.60
569;DHT22;269;48.884;9.192;2022-07-18T16:44:48;34.20;36.60
569;DHT22;269;48.884;9.192;2022-07-18T16:47:17;34.10;36.20
569;DHT22;269;48.884;9.192;2022-07-18T16:49:45;33.90;36.30
569;DHT22;269;48.884;9.192;2022-07-18T16:52:12;33.90;36.80
569;DHT22;269;48.884;9.192;2022-07-18T16:54:40;33.80;37.70
569;DHT22;269;48.884;9.192;2022-07-18T16:57:08;33.70;38.50
569;DHT22;269;48.884;9.192;2022-07-18T16:59:35;33.70;38.30
569;DHT22;269;48.884;9.192;2022-07-18T17:02:08;33.70;39.10
569;DHT22;269;48.884;9.192;2022-07-18T17:04:36;33.60;38.70
569;DHT22;269;48.884;9.192;2022-07-18T17:07:04;33.50;38.20
569;DHT22;269;48.884;9.192;2022-07-18T17:09:32;33.30;38.30
569;DHT22;269;48.884;9.192;2022-07-18T17:12:00;33.30;38.00
569;DHT22;269;48.884;9.192;2022-07-18T17:14:28;33.30;38.80
569;DHT22;269;48.884;9.192;2022-07-18T17:16:55;33.10;38.50
569;DHT22;269;48.884;9.192;2022-07-18T17:19:25;33.10;38.50
569;DHT22;269;48.884;9.192;2022-07-18T17:21:54;32.90;38.80
569;DHT22;269;48.884;9.192;2022-07-18T17:24:22;32.90;39.20
569;DHT22;269;48.884;9.192;2022-07-18T17:26:49;32.80;39.40
569;DHT22;269;48.884;9.192;2022-07-18T17:29:17;32.70;39.20
569;DHT22;269;48.884;9.192;2022-07-18T17:31:44;32.70;39.50
569;DHT22;269;48.884;9.192;2022-07-18T17:34:11;32.60;39.50
569;DHT22;269;48.884;9.192;2022-07-18T17:36:40;32.50;39.80
569;DHT22;269;48.884;9.192;2022-07-18T17:39:09;32.50;40.00
569;DHT22;269;48.884;9.192;2022-07-18T17:41:36;32.40;40.20
569;DHT22;269;48.884;9.192;2022-07-18T17:44:04;32.20;39.70
569;DHT22;269;48.884;9.192;2022-07-18T17:46:31;32.20;40.30
569;DHT22;269;48.884;9.192;2022-07-18T17:48:59;32.00;40.20
569;DHT22;269;48.884;9.192;2022-07-18T17:51:27;32.00;40.40
569;DHT22;269;48.884;9.192;2022-07-18T17:53:54;31.90;40.70
569;DHT22;269;48.884;9.192;2022-07-18T17:56:23;31.80;41.00
569;DHT22;269;48.884;9.192;2022-07-18T17:58:50;31.70;41.10
569;DHT22;269;48.884;9.192;2022-07-18T18:01:17;31.70;41.40
569;DHT22;269;48.884;9.192;2022-07-18T18:03:45;31.60;41.30
569;DHT22;269;48.884;9.192;2022-07-18T18:06:12;31.50;42.10
569;DHT22;269;48.884;9.192;2022-07-18T18:08:39;31.40;41.80
569;DHT22;269;48.884;9.192;2022-07-18T18:11:07;31.40;42.00
569;DHT22;269;48.884;9.192;2022-07-18T18:13:35;31.40;42.10
569;DHT22;269;48.884;9.192;2022-07-18T18:16:03;31.20;42.30
569;DHT22;269;48.884;9.192;2022-07-18T18:18:30;31.20;42.10
569;DHT22;269;48.884;9.192;2022-07-18T18:20:58;31.00;42.00
569;DHT22;269;48.884;9.192;2022-07-18T18:23:26;31.00;41.90
569;DHT22;269;48.884;9.192;2022-07-18T18:25:53;30.90;42.40
569;DHT22;269;48.884;9.192;2022-07-18T18:28:20;30.90;42.60
569;DHT22;269;48.884;9.192;2022-07-18T18:30:48;30.80;42.80
569;DHT22;269;48.884;9.192;2022-07-18T18:33:15;30.80;42.70
569;DHT22;269;48.884;9.192;2022-07-18T18:35:42;30.70;42.40
569;DHT22;269;48.884;9.192;2022-07-18T18:38:09;30.70;42.40
569;DHT22;269;48.884;9.192;2022-07-18T18:40:38;30.60;42.70
569;DHT22;269;48.884;9.192;2022-07-18T18:43:05;30.60;42.60
569;DHT22;269;48.884;9.192;2022-07-18T18:45:33;30.60;42.80
569;DHT22;269;48.884;9.192;2022-07-18T18:48:01;30.50;42.70
569;DHT22;269;48.884;9.192;2022-07-18T18:50:29;30.50;42.90
569;DHT22;269;48.884;9.192;2022-07-18T18:52:56;30.40;42.90
569;DHT22;269;48.884;9.192;2022-07-18T18:55:23;30.40;43.20
569;DHT22;269;48.884;9.192;2022-07-18T18:57:50;30.30;43.20
569;DHT22;269;48.884;9.192;2022-07-18T19:00:17;30.30;43.10
569;DHT22;269;48.884;9.192;2022-07-18T19:02:47;30.20;43.20
569;DHT22;269;48.884;9.192;2022-07-18T19:05:17;30.10;43.60
569;DHT22;269;48.884;9.192;2022-07-18T19:07:45;30.10;43.40
569;DHT22;269;48.884;9.192;2022-07-18T19:10:12;30.00;43.40
569;DHT22;269;48.884;9.192;2022-07-18T19:12:40;29.90;43.70
569;DHT22;269;48.884;9.192;2022-07-18T19:15:07;29.80;44.70
569;DHT22;269;48.884;9.192;2022-07-18T19:17:35;29.80;44.60
569;DHT22;269;48.884;9.192;2022-07-18T19:20:03;29.70;44.60
569;DHT22;269;48.884;9.192;2022-07-18T19:22:31;29.60;44.80
569;DHT22;269;48.884;9.192;2022-07-18T19:24:58;29.40;44.70
569;DHT22;269;48.884;9.192;2022-07-18T19:27:25;29.30;45.00
569;DHT22;269;48.884;9.192;2022-07-18T19:29:52;29.20;45.10
569;DHT22;269;48.884;9.192;2022-07-18T19:32:19;29.20;45.00
569;DHT22;269;48.884;9.192;2022-07-18T19:34:47;29.00;45.10
569;DHT22;269;48.884;9.192;2022-07-18T19:37:14;29.00;45.20
569;DHT22;269;48.884;9.192;2022-07-18T19:39:42;28.90;45.10
569;DHT22;269;48.884;9.192;2022-07-18T19:42:09;28.80;45.20
569;DHT22;269;48.884;9.192;2022-07-18T19:44:36;28.80;44.90
569;DHT22;269;48.884;9.192;2022-07-18T19:47:03;28.70;44.80
569;DHT22;269;48.884;9.192;2022-07-18T19:49:30;28.70;44.80
569;DHT22;269;48.884;9.192;2022-07-18T19:51:57;28.60;44.80
569;DHT22;269;48.884;9.192;2022-07-18T19:54:24;28.60;44.90
569;DHT22;269;48.884;9.192;2022-07-18T19:56:53;28.50;45.00
569;DHT22;269;48.884;9.192;2022-07-18T19:59:20;28.50;44.90
569;DHT22;269;48.884;9.192;2022-07-18T20:01:47;28.40;45.10
569;DHT22;269;48.884;9.192;2022-07-18T20:04:14;28.40;45.20
569;DHT22;269;48.884;9.192;2022-07-18T20:06:41;28.30;45.10
569;DHT22;269;48.884;9.192;2022-07-18T20:09:08;28.30;45.30
569;DHT22;269;48.884;9.192;2022-07-18T20:11:35;28.20;45.30
569;DHT22;269;48.884;9.192;2022-07-18T20:14:04;28.20;45.10
569;DHT22;269;48.884;9.192;2022-07-18T20:16:31;28.10;45.20
569;DHT22;269;48.884;9.192;2022-07-18T20:18:58;28.10;45.10
569;DHT22;269;48.884;9.192;2022-07-18T20:21:25;28.10;45.20
569;DHT22;269;48.884;9.192;2022-07-18T20:23:53;28.00;45.20
569;DHT22;269;48.884;9.192;2022-07-18T20:26:20;28.00;45.10
569;DHT22;269;48.884;9.192;2022-07-18T20:28:47;28.00;45.10
569;DHT22;269;48.884;9.192;2022-07-18T20:31:15;27.90;45.20
569;DHT22;269;48.884;9.192;2022-07-18T20:33:42;27.90;45.30
569;DHT22;269;48.884;9.192;2022-07-18T20:36:09;27.90;45.20
569;DHT22;269;48.884;9.192;2022-07-18T20:38:36;27.90;45.30
569;DHT22;269;48.884;9.192;2022-07-18T20:41:04;27.80;45.40
569;DHT22;269;48.884;9.192;2022-07-18T20:43:43;27.80;45.40
569;DHT22;269;48.884;9.192;2022-07-18T20:46:10;27.80;45.60
569;DHT22;269;48.884;9.192;2022-07-18T20:48:39;27.70;45.70
569;DHT22;269;48.884;9.192;2022-07-18T20:51:06;27.70;46.00
569;DHT22;269;48.884;9.192;2022-07-18T20:53:33;27.60;46.20
569;DHT22;269;48.884;9.192;2022-07-18T20:56:00;27.50;46.20
569;DHT22;269;48.884;9.192;2022-07-18T20:58:27;27.50;46.20
569;DHT22;269;48.884;9.192;2022-07-18T21:00:54;27.40;46.50
569;DHT22;269;48.884;9.192;2022-07-18T21:03:21;27.40;46.60
569;DHT22;269;48.884;9.192;2022-07-18T21:05:50;27.30;46.80
569;DHT22;269;48.884;9.192;2022-07-18T21:08:17;27.30;47.20
569;DHT22;269;48.884;9.192;2022-07-18T21:10:44;27.20;47.10
569;DHT22;269;48.884;9.192;2022-07-18T21:13:11;27.30;47.50
569;DHT22;269;48.884;9.192;2022-07-18T21:15:39;27.10;47.80
569;DHT22;269;48.884;9.192;2022-07-18T21:18:06;27.00;48.60
569;DHT22;269;48.884;9.192;2022-07-18T21:20:33;26.80;49.20
569;DHT22;269;48.884;9.192;2022-07-18T21:23:02;26.60;50.30
569;DHT22;269;48.884;9.192;2022-07-18T21:25:29;26.20;51.60
569;DHT22;269;48.884;9.192;2022-07-18T21:27:56;25.90;52.40
569;DHT22;269;48.884;9.192;2022-07-18T21:30:23;25.60;53.40
569;DHT22;269;48.884;9.192;2022-07-18T21:32:50;25.40;54.30
569;DHT22;269;48.884;9.192;2022-07-18T21:35:18;25.20;55.00
569;DHT22;269;48.884;9.192;2022-07-18T21:37:47;25.00;55.90
569;DHT22;269;48.884;9.192;2022-07-18T21:40:16;24.90;56.50
569;DHT22;269;48.884;9.192;2022-07-18T21:42:43;24.90;57.10
569;DHT22;269;48.884;9.192;2022-07-18T21:45:12;24.80;57.30
569;DHT22;269;48.884;9.192;2022-07-18T21:47:39;24.80;57.80
569;DHT22;269;48.884;9.192;2022-07-18T21:50:07;24.70;58.00
569;DHT22;269;48.884;9.192;2022-07-18T21:52:34;24.70;58.20
569;DHT22;269;48.884;9.192;2022-07-18T21:55:01;24.70;58.50
569;DHT22;269;48.884;9.192;2022-07-18T21:57:30;24.60;58.50
569;DHT22;269;48.884;9.192;2022-07-18T21:59:58;24.60;59.00
569;DHT22;269;48.884;9.192;2022-07-18T22:02:25;24.50;59.40
569;DHT22;269;48.884;9.192;2022-07-18T22:04:52;24.50;59.70
569;DHT22;269;48.884;9.192;2022-07-18T22:07:19;24.50;59.90
569;DHT22;269;48.884;9.192;2022-07-18T22:09:46;24.40;60.00
569;DHT22;269;48.884;9.192;2022-07-18T22:12:13;24.30;60.80
569;DHT22;269;48.884;9.192;2022-07-18T22:14:42;24.20;61.00
569;DHT22;269;48.884;9.192;2022-07-18T22:17:09;24.20;61.50
569;DHT22;269;48.884;9.192;2022-07-18T22:19:36;24.10;61.80
569;DHT22;269;48.884;9.192;2022-07-18T22:22:03;24.10;62.10
569;DHT22;269;48.884;9.192;2022-07-18T22:24:30;24.10;62.20
569;DHT22;269;48.884;9.192;2022-07-18T22:26:57;24.00;62.40
569;DHT22;269;48.884;9.192;2022-07-18T22:29:27;24.00;62.70
569;DHT22;269;48.884;9.192;2022-07-18T22:31:55;24.00;63.20
569;DHT22;269;48.884;9.192;2022-07-18T22:34:22;23.90;63.60
569;DHT22;269;48.884;9.192;2022-07-18T22:36:49;23.80;63.90
569;DHT22;269;48.884;9.192;2022-07-18T22:39:16;23.80;64.40
569;DHT22;269;48.884;9.192;2022-07-18T22:41:44;23.70;64.80
569;DHT22;269;48.884;9.192;2022-07-18T22:44:11;23.70;65.40
569;DHT22;269;48.884;9.192;2022-07-18T22:46:38;23.60;65.50
569;DHT22;269;48.884;9.192;2022-07-18T22:49:06;23.60;65.90
569;DHT22;269;48.884;9.192;2022-07-18T22:51:34;23.60;66.40
569;DHT22;269;48.884;9.192;2022-07-18T22:54:01;23.50;66.60
569;DHT22;269;48.884;9.192;2022-07-18T22:56:28;23.50;67.00
569;DHT22;269;48.884;9.192;2022-07-18T22:58:55;23.40;68.20
569;DHT22;269;48.884;9.192;2022-07-18T23:01:22;23.20;68.00
569;DHT22;269;48.884;9.192;2022-07-18T23:03:49;23.10;68.70
569;DHT22;269;48.884;9.192;2022-07-18T23:06:17;22.90;69.40
569;DHT22;269;48.884;9.192;2022-07-18T23:08:44;22.80;70.00
569;DHT22;269;48.884;9.192;2022-07-18T23:11:11;22.70;70.30
569;DHT22;269;48.884;9.192;2022-07-18T23:13:38;22.60;71.00
569;DHT22;269;48.884;9.192;2022-07-18T23:16:06;22.50;71.60
569;DHT22;269;48.884;9.192;2022-07-18T23:18:33;22.40;72.30
569;DHT22;269;48.884;9.192;2022-07-18T23:21:00;22.40;73.00
569;DHT22;269;48.884;9.192;2022-07-18T23:23:28;22.40;73.80
569;DHT22;269;48.884;9.192;2022-07-18T23:25:56;22.30;74.30
569;DHT22;269;48.884;9.192;2022-07-18T23:28:23;22.20;74.90
569;DHT22;269;48.884;9.192;2022-07-18T23:30:50;22.10;75.60
569;DHT22;269;48.884;9.192;2022-07-18T23:33:18;22.00;76.20
569;DHT22;269;48.884;9.192;2022-07-18T23:35:45;22.00;76.90
569;DHT22;269;48.884;9.192;2022-07-18T23:38:12;21.90;77.60
569;DHT22;269;48.884;9.192;2022-07-18T23:40:40;21.80;78.80
569;DHT22;269;48.884;9.192;2022-07-18T23:43:07;21.70;79.60
569;DHT22;269;48.884;9.192;2022-07-18T23:45:34;21.60;80.50
569;DHT22;269;48.884;9.192;2022-07-18T23:48:01;21.50;81.30
569;DHT22;269;48.884;9.192;2022-07-18T23:50:28;21.50;82.20
569;DHT22;269;48.884;9.192;2022-07-18T23:52:55;21.40;82.70
569;DHT22;269;48.884;9.192;2022-07-18T23:55:22;21.30;82.90
569;DHT22;269;48.884;9.192;2022-07-18T23:57:50;21.40;83.20
